sensor_id;sensor_type;location;lat;lon;timestamp;pressure;altitude;pressure_sealevel;temperature;humidity
6449;BME280;3257;52.298;13.690;2022-09-25T00:01:50;76904.63;;;-144.77;79.82
6449;BME280;3257;52.298;13.690;2022-09-25T00:04:16;76890.72;;;-144.77;79.77
6449;BME280;3257;52.298;13.690;2022-09-25T00:06:44;76890.72;;;-144.77;79.78
6449;BME280;3257;52.298;13.690;2022-09-25T00:09:14;76900.66;;;-144.77;80.06
6449;BME280;3257;52.298;13.690;2022-09-25T00:11:46;76896.66;;;-144.77;79.92
6449;BME280;3257;52.298;13.690;2022-09-25T00:14:13;76890.72;;;-144.77;79.79
6449;BME280;3257;52.298;13.690;2022-09-25T00:16:40;76896.66;;;-144.77;80.09
6449;BME280;3257;52.298;13.690;2022-09-25T00:19:19;76888.72;;;-144.77;80.77
6449;BME280;3257;52.298;13.690;2022-09-25T00:22:05;76886.72;;;-144.77;79.43
6449;BME280;3257;52.298;13.690;2022-09-25T00:24:31;76894.69;;;-144.77;80.03
6449;BME280;3257;52.298;13.690;2022-09-25T00:26:59;76888.72;;;-144.77;79.19
6449;BME280;3257;52.298;13.690;2022-09-25T00:29:26;76878.78;;;-144.77;79.25
6449;BME280;3257;52.298;13.690;2022-09-25T00:31:54;76882.75;;;-144.77;78.78
6449;BME280;3257;52.298;13.690;2022-09-25T00:34:20;76866.84;;;-144.77;79.57
6449;BME280;3257;52.298;13.690;2022-09-25T00:36:47;76874.81;;;-144.77;79.95
6449;BME280;3257;52.298;13.690;2022-09-25T00:39:13;76858.91;;;-144.77;79.82
6449;BME280;3257;52.298;13.690;2022-09-25T00:41:40;76864.88;;;-144.77;79.09
6449;BME280;3257;52.298;13.690;2022-09-25T00:47:14;76860.91;;;-144.77;79.50
6449;BME280;3257;52.298;13.690;2022-09-25T00:49:43;76856.94;;;-144.77;80.05
6449;BME280;3257;52.298;13.690;2022-09-25T00:52:11;76860.91;;;-144.77;80.62
6449;BME280;3257;52.298;13.690;2022-09-25T00:54:46;76856.94;;;-144.77;80.65
6449;BME280;3257;52.298;13.690;2022-09-25T00:57:17;76870.84;;;-144.77;79.93
6449;BME280;3257;52.298;13.690;2022-09-25T00:59:55;76876.78;;;-144.77;79.93
6449;BME280;3257;52.298;13.690;2022-09-25T01:02:26;76878.78;;;-144.77;80.14
6449;BME280;3257;52.298;13.690;2022-09-25T01:04:57;76872.81;;;-144.77;80.32
6449;BME280;3257;52.298;13.690;2022-09-25T01:07:25;76868.84;;;-144.77;80.94
6449;BME280;3257;52.298;13.690;2022-09-25T01:09:52;76872.81;;;-144.77;80.92
6449;BME280;3257;52.298;13.690;2022-09-25T01:12:24;76874.81;;;-144.77;79.52
6449;BME280;3257;52.298;13.690;2022-09-25T01:14:51;76874.81;;;-144.77;80.19
6449;BME280;3257;52.298;13.690;2022-09-25T01:17:24;76868.84;;;-144.77;80.20
6449;BME280;3257;52.298;13.690;2022-09-25T01:23:16;76858.91;;;-144.77;79.90
6449;BME280;3257;52.298;13.690;2022-09-25T01:31:31;76872.81;;;-144.77;80.83
6449;BME280;3257;52.298;13.690;2022-09-25T01:42:48;76868.84;;;-144.77;80.82
6449;BME280;3257;52.298;13.690;2022-09-25T01:45:36;76874.81;;;-144.77;81.27
6449;BME280;3257;52.298;13.690;2022-09-25T01:48:08;76886.72;;;-144.77;81.46
6449;BME280;3257;52.298;13.690;2022-09-25T01:51:01;76882.75;;;-144.77;80.97
6449;BME280;3257;52.298;13.690;2022-09-25T01:53:36;76892.69;;;-144.77;81.88
6449;BME280;3257;52.298;13.690;2022-09-25T01:56:22;76884.75;;;-144.77;82.34
6449;BME280;3257;52.298;13.690;2022-09-25T02:01:38;76884.75;;;-144.77;82.52
6449;BME280;3257;52.298;13.690;2022-09-25T02:04:13;76890.72;;;-144.77;82.66
6449;BME280;3257;52.298;13.690;2022-09-25T02:06:44;76888.72;;;-144.77;82.41
6449;BME280;3257;52.298;13.690;2022-09-25T02:09:16;76896.66;;;-144.77;83.04
6449;BME280;3257;52.298;13.690;2022-09-25T02:11:47;76894.69;;;-144.77;83.16
6449;BME280;3257;52.298;13.690;2022-09-25T02:14:19;76882.75;;;-144.77;82.79
6449;BME280;3257;52.298;13.690;2022-09-25T02:16:52;76872.81;;;-144.77;82.72
6449;BME280;3257;52.298;13.690;2022-09-25T02:19:20;76864.88;;;-144.77;82.27
6449;BME280;3257;52.298;13.690;2022-09-25T02:24:44;76858.91;;;-144.77;82.13
6449;BME280;3257;52.298;13.690;2022-09-25T02:27:14;76860.91;;;-144.77;82.39
6449;BME280;3257;52.298;13.690;2022-09-25T02:29:41;76848.97;;;-144.77;82.08
6449;BME280;3257;52.298;13.690;2022-09-25T02:32:12;76852.94;;;-144.77;82.22
6449;BME280;3257;52.298;13.690;2022-09-25T02:34:40;76860.91;;;-144.77;82.57
6449;BME280;3257;52.298;13.690;2022-09-25T02:37:15;76860.91;;;-144.77;82.04
6449;BME280;3257;52.298;13.690;2022-09-25T02:39:46;76866.84;;;-144.77;81.68
6449;BME280;3257;52.298;13.690;2022-09-25T02:42:31;76872.81;;;-144.77;81.87
6449;BME280;3257;52.298;13.690;2022-09-25T02:47:38;76866.84;;;-144.77;82.15
6449;BME280;3257;52.298;13.690;2022-09-25T02:53:17;76888.72;;;-144.77;82.65
6449;BME280;3257;52.298;13.690;2022-09-25T02:55:53;76894.69;;;-144.77;82.34
6449;BME280;3257;52.298;13.690;2022-09-25T03:01:09;76882.75;;;-144.77;82.72
6449;BME280;3257;52.298;13.690;2022-09-25T03:03:38;76882.75;;;-144.77;82.71
6449;BME280;3257;52.298;13.690;2022-09-25T03:06:06;76886.72;;;-144.77;82.79
6449;BME280;3257;52.298;13.690;2022-09-25T03:08:37;76882.75;;;-144.77;83.06
6449;BME280;3257;52.298;13.690;2022-09-25T03:11:05;76874.81;;;-144.77;83.28
6449;BME280;3257;52.298;13.690;2022-09-25T03:13:33;76872.81;;;-144.77;83.17
6449;BME280;3257;52.298;13.690;2022-09-25T03:16:26;76884.75;;;-144.77;83.16
6449;BME280;3257;52.298;13.690;2022-09-25T03:18:48;76876.78;;;-144.77;83.07
6449;BME280;3257;52.298;13.690;2022-09-25T03:21:15;76884.75;;;-144.77;83.49
6449;BME280;3257;52.298;13.690;2022-09-25T03:23:42;76886.72;;;-144.77;84.02
6449;BME280;3257;52.298;13.690;2022-09-25T03:26:08;76886.72;;;-144.77;84.17
6449;BME280;3257;52.298;13.690;2022-09-25T03:28:35;76880.78;;;-144.77;84.02
6449;BME280;3257;52.298;13.690;2022-09-25T03:31:05;76888.72;;;-144.77;84.69
6449;BME280;3257;52.298;13.690;2022-09-25T03:33:35;76898.66;;;-144.77;84.75
6449;BME280;3257;52.298;13.690;2022-09-25T03:36:05;76892.69;;;-144.77;84.53
6449;BME280;3257;52.298;13.690;2022-09-25T03:38:32;76896.66;;;-144.77;84.63
6449;BME280;3257;52.298;13.690;2022-09-25T03:41:00;76886.72;;;-144.77;84.31
6449;BME280;3257;52.298;13.690;2022-09-25T03:43:27;76890.72;;;-144.77;84.44
6449;BME280;3257;52.298;13.690;2022-09-25T03:45:58;76880.78;;;-144.77;84.47
6449;BME280;3257;52.298;13.690;2022-09-25T03:48:25;76878.78;;;-144.77;84.40
6449;BME280;3257;52.298;13.690;2022-09-25T03:50:52;76874.81;;;-144.77;84.26
6449;BME280;3257;52.298;13.690;2022-09-25T03:53:18;76868.84;;;-144.77;84.01
6449;BME280;3257;52.298;13.690;2022-09-25T03:55:45;76866.84;;;-144.77;83.43
6449;BME280;3257;52.298;13.690;2022-09-25T03:58:15;76874.81;;;-144.77;82.71
6449;BME280;3257;52.298;13.690;2022-09-25T04:00:44;76872.81;;;-144.77;82.60
6449;BME280;3257;52.298;13.690;2022-09-25T04:03:12;76868.84;;;-144.77;82.37
6449;BME280;3257;52.298;13.690;2022-09-25T04:05:40;76860.91;;;-144.77;82.33
6449;BME280;3257;52.298;13.690;2022-09-25T04:08:07;76866.84;;;-144.77;82.83
6449;BME280;3257;52.298;13.690;2022-09-25T04:10:34;76884.75;;;-144.77;83.09
6449;BME280;3257;52.298;13.690;2022-09-25T04:13:05;76894.69;;;-144.77;83.28
6449;BME280;3257;52.298;13.690;2022-09-25T04:15:33;76878.78;;;-144.77;83.29
6449;BME280;3257;52.298;13.690;2022-09-25T04:18:00;76888.72;;;-144.77;82.95
6449;BME280;3257;52.298;13.690;2022-09-25T04:20:31;76876.78;;;-144.77;82.35
6449;BME280;3257;52.298;13.690;2022-09-25T04:22:58;76882.75;;;-144.77;82.60
6449;BME280;3257;52.298;13.690;2022-09-25T04:25:24;76896.66;;;-144.77;83.64
6449;BME280;3257;52.298;13.690;2022-09-25T04:27:52;76904.63;;;-144.77;83.74
6449;BME280;3257;52.298;13.690;2022-09-25T04:30:24;76908.59;;;-144.77;83.93
6449;BME280;3257;52.298;13.690;2022-09-25T04:32:52;76912.56;;;-144.77;84.60
6449;BME280;3257;52.298;13.690;2022-09-25T04:35:37;76912.56;;;-144.77;84.79
6449;BME280;3257;52.298;13.690;2022-09-25T04:38:04;76920.53;;;-144.77;84.62
6449;BME280;3257;52.298;13.690;2022-09-25T04:40:31;76914.56;;;-144.77;85.03
6449;BME280;3257;52.298;13.690;2022-09-25T04:43:00;76916.53;;;-144.77;85.21
6449;BME280;3257;52.298;13.690;2022-09-25T04:45:27;76896.66;;;-144.77;85.34
6449;BME280;3257;52.298;13.690;2022-09-25T04:47:58;76910.59;;;-144.77;84.62
6449;BME280;3257;52.298;13.690;2022-09-25T04:50:26;76902.63;;;-144.77;84.82
6449;BME280;3257;52.298;13.690;2022-09-25T04:52:55;76900.66;;;-144.77;85.04
6449;BME280;3257;52.298;13.690;2022-09-25T04:55:23;76914.56;;;-144.77;85.07
6449;BME280;3257;52.298;13.690;2022-09-25T04:57:50;76924.50;;;-144.77;85.71
6449;BME280;3257;52.298;13.690;2022-09-25T05:00:27;76912.56;;;-144.77;85.84
6449;BME280;3257;52.298;13.690;2022-09-25T05:02:54;76904.63;;;-144.77;85.54
6449;BME280;3257;52.298;13.690;2022-09-25T05:05:21;76878.78;;;-144.77;83.31
6449;BME280;3257;52.298;13.690;2022-09-25T05:07:54;76888.72;;;-144.77;83.78
6449;BME280;3257;52.298;13.690;2022-09-25T05:10:22;76892.69;;;-144.77;83.32
6449;BME280;3257;52.298;13.690;2022-09-25T05:12:54;76896.66;;;-144.77;83.94
6449;BME280;3257;52.298;13.690;2022-09-25T05:15:21;76896.66;;;-144.77;84.55
6449;BME280;3257;52.298;13.690;2022-09-25T05:17:48;76910.59;;;-144.77;84.79
6449;BME280;3257;52.298;13.690;2022-09-25T05:20:14;76912.56;;;-144.77;85.30
6449;BME280;3257;52.298;13.690;2022-09-25T05:22:42;76916.53;;;-144.77;85.12
6449;BME280;3257;52.298;13.690;2022-09-25T05:25:09;76916.53;;;-144.77;85.52
6449;BME280;3257;52.298;13.690;2022-09-25T05:27:36;76922.50;;;-144.77;85.61
6449;BME280;3257;52.298;13.690;2022-09-25T05:30:03;76928.47;;;-144.77;85.55
6449;BME280;3257;52.298;13.690;2022-09-25T05:32:29;76916.53;;;-144.77;85.53
6449;BME280;3257;52.298;13.690;2022-09-25T05:34:56;76914.56;;;-144.77;85.13
6449;BME280;3257;52.298;13.690;2022-09-25T05:37:22;76866.84;;;-144.77;82.84
6449;BME280;3257;52.298;13.690;2022-09-25T05:39:49;76882.75;;;-144.77;83.27
6449;BME280;3257;52.298;13.690;2022-09-25T05:42:16;76888.72;;;-144.77;83.81
6449;BME280;3257;52.298;13.690;2022-09-25T05:44:45;76888.72;;;-144.77;84.30
6449;BME280;3257;52.298;13.690;2022-09-25T05:47:11;76886.72;;;-144.77;84.60
6449;BME280;3257;52.298;13.690;2022-09-25T05:49:37;76876.78;;;-144.77;83.79
6449;BME280;3257;52.298;13.690;2022-09-25T05:52:04;76872.81;;;-144.77;83.49
6449;BME280;3257;52.298;13.690;2022-09-25T05:54:30;76868.84;;;-144.77;83.37
6449;BME280;3257;52.298;13.690;2022-09-25T05:56:57;76876.78;;;-144.77;83.75
6449;BME280;3257;52.298;13.690;2022-09-25T05:59:24;76874.81;;;-144.77;84.03
6449;BME280;3257;52.298;13.690;2022-09-25T06:01:50;76890.72;;;-144.77;84.46
6449;BME280;3257;52.298;13.690;2022-09-25T06:04:17;76872.81;;;-144.77;83.49
6449;BME280;3257;52.298;13.690;2022-09-25T06:06:43;76878.78;;;-144.77;83.72
6449;BME280;3257;52.298;13.690;2022-09-25T06:09:10;76884.75;;;-144.77;84.13
6449;BME280;3257;52.298;13.690;2022-09-25T06:11:36;76876.78;;;-144.77;84.02
6449;BME280;3257;52.298;13.690;2022-09-25T06:14:03;76866.84;;;-144.77;84.22
6449;BME280;3257;52.298;13.690;2022-09-25T06:16:29;76876.78;;;-144.77;84.25
6449;BME280;3257;52.298;13.690;2022-09-25T06:18:56;76894.69;;;-144.77;83.42
6449;BME280;3257;52.298;13.690;2022-09-25T06:21:23;76890.72;;;-144.77;83.84
6449;BME280;3257;52.298;13.690;2022-09-25T06:23:49;76862.88;;;-144.77;83.62
6449;BME280;3257;52.298;13.690;2022-09-25T06:26:16;76847.00;;;-144.77;83.29
6449;BME280;3257;52.298;13.690;2022-09-25T06:28:42;76870.84;;;-144.77;83.55
6449;BME280;3257;52.298;13.690;2022-09-25T06:31:09;76870.84;;;-144.77;82.84
6449;BME280;3257;52.298;13.690;2022-09-25T06:33:35;76835.06;;;-144.77;82.55
6449;BME280;3257;52.298;13.690;2022-09-25T06:36:04;76829.09;;;-144.77;81.69
6449;BME280;3257;52.298;13.690;2022-09-25T06:38:30;76841.03;;;-144.77;82.43
6449;BME280;3257;52.298;13.690;2022-09-25T06:40:59;76841.03;;;-144.77;82.27
6449;BME280;3257;52.298;13.690;2022-09-25T06:43:27;76833.06;;;-144.77;82.38
6449;BME280;3257;52.298;13.690;2022-09-25T06:45:53;76841.03;;;-144.77;82.22
6449;BME280;3257;52.298;13.690;2022-09-25T06:48:20;76843.00;;;-144.77;81.27
6449;BME280;3257;52.298;13.690;2022-09-25T06:50:50;76852.94;;;-144.77;81.49
6449;BME280;3257;52.298;13.690;2022-09-25T06:53:19;76829.09;;;-144.77;80.41
6449;BME280;3257;52.298;13.690;2022-09-25T06:55:47;76807.25;;;-144.77;80.07
6449;BME280;3257;52.298;13.690;2022-09-25T06:58:17;76797.31;;;-144.77;79.72
6449;BME280;3257;52.298;13.690;2022-09-25T07:00:46;76751.59;;;-144.77;79.13
6449;BME280;3257;52.298;13.690;2022-09-25T07:03:13;76761.53;;;-144.77;78.73
6449;BME280;3257;52.298;13.690;2022-09-25T07:05:59;76777.44;;;-144.77;77.87
6449;BME280;3257;52.298;13.690;2022-09-25T07:08:27;76755.56;;;-144.77;78.09
6449;BME280;3257;52.298;13.690;2022-09-25T07:10:55;76775.44;;;-144.77;77.94
6449;BME280;3257;52.298;13.690;2022-09-25T07:13:27;76747.63;;;-144.77;76.99
6449;BME280;3257;52.298;13.690;2022-09-25T07:15:57;76713.84;;;-144.77;76.80
6449;BME280;3257;52.298;13.690;2022-09-25T07:18:25;76682.03;;;-144.77;74.35
6449;BME280;3257;52.298;13.690;2022-09-25T07:20:53;76670.13;;;-144.77;73.98
6449;BME280;3257;52.298;13.690;2022-09-25T07:23:24;76662.16;;;-144.77;73.73
6449;BME280;3257;52.298;13.690;2022-09-25T07:25:52;76672.09;;;-144.77;73.85
6449;BME280;3257;52.298;13.690;2022-09-25T07:28:18;76703.91;;;-144.77;74.71
6449;BME280;3257;52.298;13.690;2022-09-25T07:30:46;76674.09;;;-144.77;73.65
6449;BME280;3257;52.298;13.690;2022-09-25T07:33:14;76672.09;;;-144.77;75.27
6449;BME280;3257;52.298;13.690;2022-09-25T07:35:41;76684.03;;;-144.77;75.04
6449;BME280;3257;52.298;13.690;2022-09-25T07:38:08;76686.00;;;-144.77;74.55
6449;BME280;3257;52.298;13.690;2022-09-25T07:40:34;76650.25;;;-144.77;74.52
6449;BME280;3257;52.298;13.690;2022-09-25T07:43:02;76638.31;;;-144.77;73.72
6449;BME280;3257;52.298;13.690;2022-09-25T07:45:29;76662.16;;;-144.77;74.35
6449;BME280;3257;52.298;13.690;2022-09-25T07:47:57;76654.22;;;-144.77;74.55
6449;BME280;3257;52.298;13.690;2022-09-25T07:50:24;76658.19;;;-144.77;73.49
6449;BME280;3257;52.298;13.690;2022-09-25T07:52:52;76636.34;;;-144.77;74.36
6449;BME280;3257;52.298;13.690;2022-09-25T07:55:19;76614.47;;;-144.77;73.43
6449;BME280;3257;52.298;13.690;2022-09-25T07:57:46;76626.41;;;-144.77;73.57
6449;BME280;3257;52.298;13.690;2022-09-25T08:00:14;76630.38;;;-144.77;73.99
6449;BME280;3257;52.298;13.690;2022-09-25T08:02:40;76630.38;;;-144.77;73.40
6449;BME280;3257;52.298;13.690;2022-09-25T08:05:08;76638.31;;;-144.77;74.00
6449;BME280;3257;52.298;13.690;2022-09-25T08:07:35;76628.38;;;-144.77;73.01
6449;BME280;3257;52.298;13.690;2022-09-25T08:10:02;76638.31;;;-144.77;75.34
6449;BME280;3257;52.298;13.690;2022-09-25T08:12:29;76626.41;;;-144.77;75.32
6449;BME280;3257;52.298;13.690;2022-09-25T08:14:55;76606.53;;;-144.77;74.20
6449;BME280;3257;52.298;13.690;2022-09-25T08:17:22;76584.66;;;-144.77;73.99
6449;BME280;3257;52.298;13.690;2022-09-25T08:19:49;76576.72;;;-144.77;73.77
6449;BME280;3257;52.298;13.690;2022-09-25T08:22:15;76594.59;;;-144.77;73.33
6449;BME280;3257;52.298;13.690;2022-09-25T08:24:41;76592.63;;;-144.77;73.04
6449;BME280;3257;52.298;13.690;2022-09-25T08:27:08;76600.56;;;-144.77;73.25
6449;BME280;3257;52.298;13.690;2022-09-25T08:29:35;76590.63;;;-144.77;73.07
6449;BME280;3257;52.298;13.690;2022-09-25T08:32:01;76584.66;;;-144.77;72.56
6449;BME280;3257;52.298;13.690;2022-09-25T08:34:28;76572.75;;;-144.77;71.90
6449;BME280;3257;52.298;13.690;2022-09-25T08:37:07;76574.72;;;-144.77;73.47
6449;BME280;3257;52.298;13.690;2022-09-25T08:39:33;76548.91;;;-144.77;71.53
6449;BME280;3257;52.298;13.690;2022-09-25T08:42:00;76540.94;;;-144.77;71.27
6449;BME280;3257;52.298;13.690;2022-09-25T08:44:33;76538.97;;;-144.77;69.54
6449;BME280;3257;52.298;13.690;2022-09-25T08:47:08;76535.00;;;-144.77;70.52
6449;BME280;3257;52.298;13.690;2022-09-25T08:50:10;76546.91;;;-144.77;71.50
6449;BME280;3257;52.298;13.690;2022-09-25T08:52:45;76535.00;;;-144.77;70.02
6449;BME280;3257;52.298;13.690;2022-09-25T08:55:33;76533.00;;;-144.77;70.76
6449;BME280;3257;52.298;13.690;2022-09-25T08:58:31;76519.09;;;-144.77;70.21
6449;BME280;3257;52.298;13.690;2022-09-25T09:01:01;76515.13;;;-144.77;70.24
6449;BME280;3257;52.298;13.690;2022-09-25T09:03:31;76503.19;;;-144.77;70.02
6449;BME280;3257;52.298;13.690;2022-09-25T09:06:04;76477.38;;;-144.77;69.96
6449;BME280;3257;52.298;13.690;2022-09-25T09:08:35;76477.38;;;-144.77;69.07
6449;BME280;3257;52.298;13.690;2022-09-25T09:11:07;76471.41;;;-144.77;68.95
6449;BME280;3257;52.298;13.690;2022-09-25T09:13:52;76481.34;;;-144.77;68.62
6449;BME280;3257;52.298;13.690;2022-09-25T09:19:01;76465.44;;;-144.77;68.72
6449;BME280;3257;52.298;13.690;2022-09-25T09:21:36;76451.53;;;-144.77;69.41
6449;BME280;3257;52.298;13.690;2022-09-25T09:32:28;76419.72;;;-144.77;68.64
6449;BME280;3257;52.298;13.690;2022-09-25T09:35:09;76401.84;;;-144.77;70.19
6449;BME280;3257;52.298;13.690;2022-09-25T09:49:48;76304.50;;;-144.77;67.54
6449;BME280;3257;52.298;13.690;2022-09-25T09:52:21;76292.56;;;-144.77;66.90
6449;BME280;3257;52.298;13.690;2022-09-25T09:54:52;76284.63;;;-144.77;64.35
6449;BME280;3257;52.298;13.690;2022-09-25T09:57:24;76270.72;;;-144.77;65.33
6449;BME280;3257;52.298;13.690;2022-09-25T09:59:59;76272.69;;;-144.77;65.17
6449;BME280;3257;52.298;13.690;2022-09-25T10:02:34;76238.91;;;-144.77;64.03
6449;BME280;3257;52.298;13.690;2022-09-25T10:05:07;76221.03;;;-144.77;65.27
6449;BME280;3257;52.298;13.690;2022-09-25T10:07:37;76205.13;;;-144.77;64.89
6449;BME280;3257;52.298;13.690;2022-09-25T10:10:13;76197.19;;;-144.77;65.94
6449;BME280;3257;52.298;13.690;2022-09-25T10:12:50;76181.28;;;-144.77;64.02
6449;BME280;3257;52.298;13.690;2022-09-25T10:15:39;76185.25;;;-144.77;63.40
6449;BME280;3257;52.298;13.690;2022-09-25T10:18:07;76181.28;;;-144.77;63.89
6449;BME280;3257;52.298;13.690;2022-09-25T10:20:51;76175.34;;;-144.77;62.20
6449;BME280;3257;52.298;13.690;2022-09-25T10:26:35;76125.66;;;-144.77;61.65
6449;BME280;3257;52.298;13.690;2022-09-25T10:29:34;76101.81;;;-144.77;61.10
6449;BME280;3257;52.298;13.690;2022-09-25T10:32:02;76062.06;;;-144.77;62.00
6449;BME280;3257;52.298;13.690;2022-09-25T10:34:30;76068.03;;;-144.77;61.06
6449;BME280;3257;52.298;13.690;2022-09-25T10:36:57;76058.09;;;-144.77;60.13
6449;BME280;3257;52.298;13.690;2022-09-25T10:39:31;76032.28;;;-144.77;57.36
6449;BME280;3257;52.298;13.690;2022-09-25T10:44:59;76056.13;;;-144.77;57.07
6449;BME280;3257;52.298;13.690;2022-09-25T10:47:29;76034.25;;;-144.77;57.20
6449;BME280;3257;52.298;13.690;2022-09-25T10:50:19;76024.31;;;-144.77;58.13
6449;BME280;3257;52.298;13.690;2022-09-25T10:52:51;75990.56;;;-144.77;56.47
6449;BME280;3257;52.298;13.690;2022-09-25T10:55:24;75954.78;;;-144.77;55.26
6449;BME280;3257;52.298;13.690;2022-09-25T10:57:58;76016.38;;;-144.77;57.89
6449;BME280;3257;52.298;13.690;2022-09-25T11:00:28;76002.47;;;-144.77;59.84
6449;BME280;3257;52.298;13.690;2022-09-25T11:03:01;76010.41;;;-144.77;56.26
6449;BME280;3257;52.298;13.690;2022-09-25T11:05:31;75988.56;;;-144.77;56.95
6449;BME280;3257;52.298;13.690;2022-09-25T11:08:01;75970.69;;;-144.77;56.94
6449;BME280;3257;52.298;13.690;2022-09-25T11:10:35;75950.81;;;-144.77;57.21
6449;BME280;3257;52.298;13.690;2022-09-25T11:13:20;75958.75;;;-144.77;56.54
6449;BME280;3257;52.298;13.690;2022-09-25T11:15:51;75932.94;;;-144.77;56.76
6449;BME280;3257;52.298;13.690;2022-09-25T11:26:32;75946.84;;;-144.77;53.97
6449;BME280;3257;52.298;13.690;2022-09-25T11:29:09;75938.91;;;-144.77;56.15
6449;BME280;3257;52.298;13.690;2022-09-25T11:31:42;75938.91;;;-144.77;53.35
6449;BME280;3257;52.298;13.690;2022-09-25T11:34:26;75913.06;;;-144.77;52.11
6449;BME280;3257;52.298;13.690;2022-09-25T11:37:07;75913.06;;;-144.77;50.08
6449;BME280;3257;52.298;13.690;2022-09-25T11:39:38;75891.22;;;-144.77;52.67
6449;BME280;3257;52.298;13.690;2022-09-25T11:45:27;75861.41;;;-144.77;50.64
6449;BME280;3257;52.298;13.690;2022-09-25T11:48:19;75879.28;;;-144.77;49.45
6449;BME280;3257;52.298;13.690;2022-09-25T11:51:09;75881.28;;;-144.77;53.94
6449;BME280;3257;52.298;13.690;2022-09-25T11:53:47;75905.13;;;-144.77;50.81
6449;BME280;3257;52.298;13.690;2022-09-25T11:56:27;75901.16;;;-144.77;50.53
6449;BME280;3257;52.298;13.690;2022-09-25T11:59:09;75899.16;;;-144.77;49.31
6449;BME280;3257;52.298;13.690;2022-09-25T12:01:45;75887.22;;;-144.77;53.86
6449;BME280;3257;52.298;13.690;2022-09-25T12:04:53;75873.31;;;-144.77;48.00
6449;BME280;3257;52.298;13.690;2022-09-25T12:13:08;75877.31;;;-144.77;51.94
6449;BME280;3257;52.298;13.690;2022-09-25T12:21:55;75867.38;;;-144.77;54.14
6449;BME280;3257;52.298;13.690;2022-09-25T12:24:40;75843.53;;;-144.77;53.56
6449;BME280;3257;52.298;13.690;2022-09-25T12:27:19;75821.69;;;-144.77;57.71
6449;BME280;3257;52.298;13.690;2022-09-25T12:30:03;75783.94;;;-144.77;54.00
6449;BME280;3257;52.298;13.690;2022-09-25T12:35:31;75764.06;;;-144.77;52.97
6449;BME280;3257;52.298;13.690;2022-09-25T12:38:21;75783.94;;;-144.77;52.64
6449;BME280;3257;52.298;13.690;2022-09-25T12:41:42;75772.00;;;-144.77;54.20
6449;BME280;3257;52.298;13.690;2022-09-25T12:43:54;75791.88;;;-144.77;50.87
6449;BME280;3257;52.298;13.690;2022-09-25T12:52:19;75791.88;;;-144.77;54.82
6449;BME280;3257;52.298;13.690;2022-09-25T12:54:57;75785.91;;;-144.77;53.44
6449;BME280;3257;52.298;13.690;2022-09-25T12:57:31;75787.91;;;-144.77;50.87
6449;BME280;3257;52.298;13.690;2022-09-25T13:00:17;75787.91;;;-144.77;49.23
6449;BME280;3257;52.298;13.690;2022-09-25T13:02:53;75809.75;;;-144.77;51.35
6449;BME280;3257;52.298;13.690;2022-09-25T13:11:36;75750.16;;;-144.77;48.64
6449;BME280;3257;52.298;13.690;2022-09-25T13:14:16;75702.47;;;-144.77;49.83
6449;BME280;3257;52.298;13.690;2022-09-25T13:16:51;75662.75;;;-144.77;46.80
6449;BME280;3257;52.298;13.690;2022-09-25T13:19:29;75636.91;;;-144.77;47.14
6449;BME280;3257;52.298;13.690;2022-09-25T13:22:04;75617.03;;;-144.77;46.66
6449;BME280;3257;52.298;13.690;2022-09-25T13:24:51;75617.03;;;-144.77;45.53
6449;BME280;3257;52.298;13.690;2022-09-25T13:27:21;75597.19;;;-144.77;43.84
6449;BME280;3257;52.298;13.690;2022-09-25T13:29:55;75601.16;;;-144.77;44.91
6449;BME280;3257;52.298;13.690;2022-09-25T13:32:27;75577.31;;;-144.77;44.06
6449;BME280;3257;52.298;13.690;2022-09-25T13:35:04;75577.31;;;-144.77;44.21
6449;BME280;3257;52.298;13.690;2022-09-25T13:37:34;75617.03;;;-144.77;42.44
6449;BME280;3257;52.298;13.690;2022-09-25T13:40:36;75630.94;;;-144.77;44.43
6449;BME280;3257;52.298;13.690;2022-09-25T13:43:20;75640.88;;;-144.77;42.03
6449;BME280;3257;52.298;13.690;2022-09-25T13:48:45;75613.06;;;-144.77;47.03
6449;BME280;3257;52.298;13.690;2022-09-25T13:53:53;75571.34;;;-144.77;43.59
6449;BME280;3257;52.298;13.690;2022-09-25T13:59:02;75625.00;;;-144.77;42.64
6449;BME280;3257;52.298;13.690;2022-09-25T14:04:18;75628.97;;;-144.77;45.31
6449;BME280;3257;52.298;13.690;2022-09-25T14:06:50;75652.81;;;-144.77;45.06
6449;BME280;3257;52.298;13.690;2022-09-25T14:09:22;75670.69;;;-144.77;44.99
6449;BME280;3257;52.298;13.690;2022-09-25T14:14:34;75678.63;;;-144.77;48.37
6449;BME280;3257;52.298;13.690;2022-09-25T14:17:02;75676.66;;;-144.77;48.34
6449;BME280;3257;52.298;13.690;2022-09-25T14:19:34;75692.53;;;-144.77;50.36
6449;BME280;3257;52.298;13.690;2022-09-25T14:22:05;75702.47;;;-144.77;49.34
6449;BME280;3257;52.298;13.690;2022-09-25T14:24:32;75698.50;;;-144.77;49.17
6449;BME280;3257;52.298;13.690;2022-09-25T14:27:01;75692.53;;;-144.77;47.55
6449;BME280;3257;52.298;13.690;2022-09-25T14:29:38;75686.56;;;-144.77;45.54
6449;BME280;3257;52.298;13.690;2022-09-25T14:35:45;75668.69;;;-144.77;46.42
6449;BME280;3257;52.298;13.690;2022-09-25T14:38:45;75668.69;;;-144.77;46.20
6449;BME280;3257;52.298;13.690;2022-09-25T14:41:49;75666.72;;;-144.77;47.51
6449;BME280;3257;52.298;13.690;2022-09-25T14:46:52;75670.69;;;-144.77;52.34
6449;BME280;3257;52.298;13.690;2022-09-25T14:49:29;75668.69;;;-144.77;46.08
6449;BME280;3257;52.298;13.690;2022-09-25T14:52:01;75672.66;;;-144.77;46.89
6449;BME280;3257;52.298;13.690;2022-09-25T14:54:32;75706.44;;;-144.77;45.42
6449;BME280;3257;52.298;13.690;2022-09-25T14:57:04;75714.41;;;-144.77;46.35
6449;BME280;3257;52.298;13.690;2022-09-25T14:59:46;75718.38;;;-144.77;49.54
6449;BME280;3257;52.298;13.690;2022-09-25T15:02:21;75686.56;;;-144.77;46.57
6449;BME280;3257;52.298;13.690;2022-09-25T15:04:49;75702.47;;;-144.77;47.06
6449;BME280;3257;52.298;13.690;2022-09-25T15:07:19;75700.47;;;-144.77;51.31
6449;BME280;3257;52.298;13.690;2022-09-25T15:09:49;75694.53;;;-144.77;48.22
6449;BME280;3257;52.298;13.690;2022-09-25T15:12:25;75724.31;;;-144.77;48.98
6449;BME280;3257;52.298;13.690;2022-09-25T15:15:18;75734.25;;;-144.77;50.96
6449;BME280;3257;52.298;13.690;2022-09-25T15:17:55;75762.06;;;-144.77;49.39